Terminal Aerodrome Forecast
Issued by NWS

Home | Current Version | Previous Version | Graphics & Text | Print | Product List | Glossary On
Versions: 1 2 3 4 5 6 7 8 9 10 11 12 13 14 15 16 17
704
FTUS43 KABR 290528
TAFPIR
TAF
KPIR 290528Z 2906/3006 VRB03KT P6SM OVC035
     FM291600 07010KT P6SM OVC035=

USA.gov is the U.S. government's official web portal to all federal, state and local government web resources and services.